Virtual Norwegian is not affiliated with Norwegian Air Shuttle in any way.
If you are looking for the real "Norwegian", or you wish to book Norwegian flights, please visit Norwegian.com


We use cookies to ensure you get the best experience on our website.   ACCEPT

SABE - AEP - Buenos Aires (Aeroparque Jorge Newbery)

General Info Alternate Airport
ICAO: SABE Elevation: 18 ft ICAO: SAEZ
IATA: AEP Country: Argentina IATA: EZE
City: Buenos Aires Charts: Log in to view charts City: Buenos Aires
Name: Aeroparque Jorge Newbery Hub: No Name Ministro Pistarini
General Info
ICAO: SABE
IATA: AEP
City: Buenos Aires
Name: Aeroparque Jorge Newbery
Elevation: 18 ft
Country: Argentina
Charts: Log in to view charts
Hub: No
 
Alternate Airport
ICAO: SAEZ
IATA: EZE
City: Buenos Aires
Name: Ministro Pistarini

Weather
240800Z 02004KT CAVOK 13/08 Q1023 NOSIG
Weather
240800Z 02004KT CAVOK 13/08 Q1023 NOSIG

NOTAMs
NOTAMs currently unavailable.
NOTAMs
NOTAMs currently unavailable

Route map
Airport
Airport (hub)